sensor_id;sensor_type;location;lat;lon;timestamp;P1;durP1;ratioP1;P2;durP2;ratioP2
44456;SDS011;30159;49.316;8.558;2022-12-05T00:00:19;34.33;;;14.57;;
44456;SDS011;30159;49.316;8.558;2022-12-05T00:02:46;32.93;;;15.20;;
44456;SDS011;30159;49.316;8.558;2022-12-05T00:05:14;30.27;;;15.00;;
44456;SDS011;30159;49.316;8.558;2022-12-05T00:07:40;34.57;;;16.03;;
44456;SDS011;30159;49.316;8.558;2022-12-05T00:10:07;33.03;;;15.37;;
44456;SDS011;30159;49.316;8.558;2022-12-05T00:12:34;27.20;;;13.10;;
44456;SDS011;30159;49.316;8.558;2022-12-05T00:15:01;41.43;;;15.93;;
44456;SDS011;30159;49.316;8.558;2022-12-05T00:17:27;32.53;;;15.10;;
44456;SDS011;30159;49.316;8.558;2022-12-05T00:19:54;30.80;;;13.67;;
44456;SDS011;30159;49.316;8.558;2022-12-05T00:22:22;40.17;;;16.00;;
44456;SDS011;30159;49.316;8.558;2022-12-05T00:24:48;39.80;;;18.03;;
44456;SDS011;30159;49.316;8.558;2022-12-05T00:27:15;33.53;;;13.70;;
44456;SDS011;30159;49.316;8.558;2022-12-05T00:29:41;31.43;;;15.90;;
44456;SDS011;30159;49.316;8.558;2022-12-05T00:32:08;27.73;;;13.10;;
44456;SDS011;30159;49.316;8.558;2022-12-05T00:34:35;36.63;;;15.77;;
44456;SDS011;30159;49.316;8.558;2022-12-05T00:37:01;35.40;;;14.33;;
44456;SDS011;30159;49.316;8.558;2022-12-05T00:39:29;37.27;;;16.00;;
44456;SDS011;30159;49.316;8.558;2022-12-05T00:41:56;34.50;;;16.73;;
44456;SDS011;30159;49.316;8.558;2022-12-05T00:44:22;33.57;;;15.47;;
44456;SDS011;30159;49.316;8.558;2022-12-05T00:46:49;36.50;;;15.17;;
44456;SDS011;30159;49.316;8.558;2022-12-05T00:49:16;26.77;;;13.90;;
44456;SDS011;30159;49.316;8.558;2022-12-05T00:51:42;36.33;;;16.50;;
44456;SDS011;30159;49.316;8.558;2022-12-05T00:54:10;28.97;;;13.67;;
44456;SDS011;30159;49.316;8.558;2022-12-05T00:56:39;32.00;;;15.70;;
44456;SDS011;30159;49.316;8.558;2022-12-05T00:59:06;29.87;;;14.80;;
44456;SDS011;30159;49.316;8.558;2022-12-05T01:01:34;34.57;;;14.73;;
44456;SDS011;30159;49.316;8.558;2022-12-05T01:04:05;53.87;;;15.67;;
44456;SDS011;30159;49.316;8.558;2022-12-05T01:06:33;32.90;;;15.90;;
44456;SDS011;30159;49.316;8.558;2022-12-05T01:09:00;37.87;;;15.07;;
44456;SDS011;30159;49.316;8.558;2022-12-05T01:11:27;38.10;;;15.67;;
44456;SDS011;30159;49.316;8.558;2022-12-05T01:13:56;43.57;;;16.33;;
44456;SDS011;30159;49.316;8.558;2022-12-05T01:16:24;33.10;;;15.43;;
44456;SDS011;30159;49.316;8.558;2022-12-05T01:18:52;30.20;;;14.60;;
44456;SDS011;30159;49.316;8.558;2022-12-05T01:21:20;43.13;;;17.20;;
44456;SDS011;30159;49.316;8.558;2022-12-05T01:23:46;40.00;;;15.20;;
44456;SDS011;30159;49.316;8.558;2022-12-05T01:26:15;34.07;;;16.00;;
44456;SDS011;30159;49.316;8.558;2022-12-05T01:28:43;38.30;;;15.80;;
44456;SDS011;30159;49.316;8.558;2022-12-05T01:31:14;38.20;;;15.63;;
44456;SDS011;30159;49.316;8.558;2022-12-05T01:33:43;38.57;;;14.40;;
44456;SDS011;30159;49.316;8.558;2022-12-05T01:36:10;39.63;;;16.87;;
44456;SDS011;30159;49.316;8.558;2022-12-05T01:38:37;39.00;;;16.60;;
44456;SDS011;30159;49.316;8.558;2022-12-05T01:41:04;41.27;;;15.87;;
44456;SDS011;30159;49.316;8.558;2022-12-05T01:43:32;33.33;;;16.40;;
44456;SDS011;30159;49.316;8.558;2022-12-05T01:45:58;47.50;;;16.23;;
44456;SDS011;30159;49.316;8.558;2022-12-05T01:48:27;37.43;;;16.07;;
44456;SDS011;30159;49.316;8.558;2022-12-05T01:50:56;31.93;;;14.73;;
44456;SDS011;30159;49.316;8.558;2022-12-05T01:53:24;29.47;;;14.87;;
44456;SDS011;30159;49.316;8.558;2022-12-05T01:55:51;39.53;;;16.07;;
44456;SDS011;30159;49.316;8.558;2022-12-05T01:58:20;38.13;;;15.60;;
44456;SDS011;30159;49.316;8.558;2022-12-05T02:00:47;37.07;;;17.10;;
44456;SDS011;30159;49.316;8.558;2022-12-05T02:03:16;43.87;;;16.33;;
44456;SDS011;30159;49.316;8.558;2022-12-05T02:05:46;33.10;;;17.17;;
44456;SDS011;30159;49.316;8.558;2022-12-05T02:08:15;41.30;;;16.10;;
44456;SDS011;30159;49.316;8.558;2022-12-05T02:10:43;38.13;;;14.53;;
44456;SDS011;30159;49.316;8.558;2022-12-05T02:13:20;36.63;;;15.03;;
44456;SDS011;30159;49.316;8.558;2022-12-05T02:15:58;43.57;;;15.77;;
44456;SDS011;30159;49.316;8.558;2022-12-05T02:18:33;42.93;;;17.30;;
44456;SDS011;30159;49.316;8.558;2022-12-05T02:24:18;34.27;;;13.30;;
44456;SDS011;30159;49.316;8.558;2022-12-05T02:27:00;34.27;;;15.50;;
44456;SDS011;30159;49.316;8.558;2022-12-05T02:29:50;35.93;;;16.80;;
44456;SDS011;30159;49.316;8.558;2022-12-05T02:32:46;42.57;;;15.77;;
44456;SDS011;30159;49.316;8.558;2022-12-05T02:35:22;33.93;;;15.30;;
44456;SDS011;30159;49.316;8.558;2022-12-05T02:38:01;42.53;;;16.13;;
44456;SDS011;30159;49.316;8.558;2022-12-05T02:40:38;31.13;;;14.33;;
44456;SDS011;30159;49.316;8.558;2022-12-05T02:43:14;34.97;;;14.83;;
44456;SDS011;30159;49.316;8.558;2022-12-05T02:45:46;36.20;;;15.03;;
44456;SDS011;30159;49.316;8.558;2022-12-05T02:48:16;39.40;;;15.77;;
44456;SDS011;30159;49.316;8.558;2022-12-05T02:50:44;30.87;;;13.83;;
44456;SDS011;30159;49.316;8.558;2022-12-05T02:53:14;31.23;;;13.43;;
44456;SDS011;30159;49.316;8.558;2022-12-05T02:55:42;29.80;;;14.63;;
44456;SDS011;30159;49.316;8.558;2022-12-05T02:58:12;33.67;;;13.97;;
44456;SDS011;30159;49.316;8.558;2022-12-05T03:00:41;33.90;;;13.73;;
44456;SDS011;30159;49.316;8.558;2022-12-05T03:03:13;27.70;;;12.90;;
44456;SDS011;30159;49.316;8.558;2022-12-05T03:05:43;33.97;;;13.23;;
44456;SDS011;30159;49.316;8.558;2022-12-05T03:08:15;33.53;;;14.80;;
44456;SDS011;30159;49.316;8.558;2022-12-05T03:10:45;27.27;;;14.10;;
44456;SDS011;30159;49.316;8.558;2022-12-05T03:13:15;29.17;;;13.57;;
44456;SDS011;30159;49.316;8.558;2022-12-05T03:15:47;30.60;;;13.50;;
44456;SDS011;30159;49.316;8.558;2022-12-05T03:18:19;33.40;;;15.17;;
44456;SDS011;30159;49.316;8.558;2022-12-05T03:20:50;32.53;;;14.30;;
44456;SDS011;30159;49.316;8.558;2022-12-05T03:23:22;46.00;;;16.13;;
44456;SDS011;30159;49.316;8.558;2022-12-05T03:25:54;36.03;;;14.73;;
44456;SDS011;30159;49.316;8.558;2022-12-05T03:28:28;43.00;;;15.90;;
44456;SDS011;30159;49.316;8.558;2022-12-05T03:31:04;34.40;;;14.17;;
44456;SDS011;30159;49.316;8.558;2022-12-05T03:33:36;44.90;;;15.47;;
44456;SDS011;30159;49.316;8.558;2022-12-05T03:36:08;39.73;;;14.77;;
44456;SDS011;30159;49.316;8.558;2022-12-05T03:38:42;49.30;;;15.90;;
44456;SDS011;30159;49.316;8.558;2022-12-05T03:41:14;53.63;;;16.10;;
44456;SDS011;30159;49.316;8.558;2022-12-05T03:43:49;34.10;;;15.53;;
44456;SDS011;30159;49.316;8.558;2022-12-05T03:46:23;33.37;;;13.60;;
44456;SDS011;30159;49.316;8.558;2022-12-05T03:48:55;33.53;;;13.80;;
44456;SDS011;30159;49.316;8.558;2022-12-05T03:51:27;40.57;;;14.60;;
44456;SDS011;30159;49.316;8.558;2022-12-05T03:54:00;31.37;;;14.17;;
44456;SDS011;30159;49.316;8.558;2022-12-05T03:56:30;35.53;;;12.30;;
44456;SDS011;30159;49.316;8.558;2022-12-05T03:59:04;31.13;;;13.50;;
44456;SDS011;30159;49.316;8.558;2022-12-05T04:01:36;36.50;;;14.70;;
44456;SDS011;30159;49.316;8.558;2022-12-05T04:04:07;36.33;;;14.60;;
44456;SDS011;30159;49.316;8.558;2022-12-05T04:06:39;33.47;;;13.70;;
44456;SDS011;30159;49.316;8.558;2022-12-05T04:09:09;31.73;;;15.80;;
44456;SDS011;30159;49.316;8.558;2022-12-05T04:11:39;29.43;;;14.60;;
44456;SDS011;30159;49.316;8.558;2022-12-05T04:14:10;30.67;;;14.50;;
44456;SDS011;30159;49.316;8.558;2022-12-05T04:16:42;30.10;;;13.47;;
44456;SDS011;30159;49.316;8.558;2022-12-05T04:19:34;36.20;;;12.97;;
44456;SDS011;30159;49.316;8.558;2022-12-05T04:22:21;32.73;;;11.70;;
44456;SDS011;30159;49.316;8.558;2022-12-05T04:24:49;30.73;;;11.90;;
44456;SDS011;30159;49.316;8.558;2022-12-05T04:27:36;20.80;;;10.30;;
44456;SDS011;30159;49.316;8.558;2022-12-05T04:30:07;31.27;;;12.83;;
44456;SDS011;30159;49.316;8.558;2022-12-05T04:32:37;33.53;;;14.07;;
44456;SDS011;30159;49.316;8.558;2022-12-05T04:35:12;25.57;;;11.70;;
44456;SDS011;30159;49.316;8.558;2022-12-05T04:37:43;31.83;;;12.57;;
44456;SDS011;30159;49.316;8.558;2022-12-05T04:40:13;28.90;;;14.57;;
44456;SDS011;30159;49.316;8.558;2022-12-05T04:42:45;40.50;;;15.20;;
44456;SDS011;30159;49.316;8.558;2022-12-05T04:45:14;33.57;;;13.80;;
44456;SDS011;30159;49.316;8.558;2022-12-05T04:47:45;32.87;;;12.93;;
44456;SDS011;30159;49.316;8.558;2022-12-05T04:50:18;32.47;;;12.67;;
44456;SDS011;30159;49.316;8.558;2022-12-05T04:52:47;30.37;;;12.47;;
44456;SDS011;30159;49.316;8.558;2022-12-05T04:55:18;28.53;;;13.10;;
44456;SDS011;30159;49.316;8.558;2022-12-05T04:57:51;34.83;;;15.40;;
44456;SDS011;30159;49.316;8.558;2022-12-05T05:00:27;33.07;;;14.60;;
44456;SDS011;30159;49.316;8.558;2022-12-05T05:02:57;33.33;;;14.30;;
44456;SDS011;30159;49.316;8.558;2022-12-05T05:05:32;35.97;;;12.57;;
44456;SDS011;30159;49.316;8.558;2022-12-05T05:08:01;29.13;;;12.67;;
44456;SDS011;30159;49.316;8.558;2022-12-05T05:10:30;37.33;;;19.67;;
44456;SDS011;30159;49.316;8.558;2022-12-05T05:12:59;33.53;;;15.50;;
44456;SDS011;30159;49.316;8.558;2022-12-05T05:15:25;37.10;;;16.23;;
44456;SDS011;30159;49.316;8.558;2022-12-05T05:17:52;31.77;;;12.30;;
44456;SDS011;30159;49.316;8.558;2022-12-05T05:20:18;29.40;;;12.93;;
44456;SDS011;30159;49.316;8.558;2022-12-05T05:22:53;35.80;;;12.50;;
44456;SDS011;30159;49.316;8.558;2022-12-05T05:25:21;29.27;;;12.57;;
44456;SDS011;30159;49.316;8.558;2022-12-05T05:27:48;24.87;;;13.23;;
44456;SDS011;30159;49.316;8.558;2022-12-05T05:30:16;23.77;;;12.30;;
44456;SDS011;30159;49.316;8.558;2022-12-05T05:32:43;26.90;;;12.33;;
44456;SDS011;30159;49.316;8.558;2022-12-05T05:35:10;24.87;;;11.23;;
44456;SDS011;30159;49.316;8.558;2022-12-05T05:37:37;25.33;;;12.10;;
44456;SDS011;30159;49.316;8.558;2022-12-05T05:40:06;32.27;;;13.90;;
44456;SDS011;30159;49.316;8.558;2022-12-05T05:42:34;25.53;;;11.57;;
44456;SDS011;30159;49.316;8.558;2022-12-05T05:45:01;31.87;;;12.97;;
44456;SDS011;30159;49.316;8.558;2022-12-05T05:47:28;31.70;;;13.90;;
44456;SDS011;30159;49.316;8.558;2022-12-05T05:49:54;30.03;;;13.77;;
44456;SDS011;30159;49.316;8.558;2022-12-05T05:52:21;20.17;;;12.80;;
44456;SDS011;30159;49.316;8.558;2022-12-05T05:54:48;27.90;;;10.60;;
44456;SDS011;30159;49.316;8.558;2022-12-05T05:57:15;25.90;;;9.67;;
44456;SDS011;30159;49.316;8.558;2022-12-05T05:59:42;25.40;;;11.33;;
44456;SDS011;30159;49.316;8.558;2022-12-05T06:02:08;25.20;;;11.07;;
44456;SDS011;30159;49.316;8.558;2022-12-05T06:04:35;31.53;;;12.27;;
44456;SDS011;30159;49.316;8.558;2022-12-05T06:07:02;30.27;;;10.77;;
44456;SDS011;30159;49.316;8.558;2022-12-05T06:09:28;26.27;;;10.77;;
44456;SDS011;30159;49.316;8.558;2022-12-05T06:11:55;22.27;;;11.87;;
44456;SDS011;30159;49.316;8.558;2022-12-05T06:14:23;25.37;;;10.80;;
44456;SDS011;30159;49.316;8.558;2022-12-05T06:16:49;21.90;;;11.73;;
44456;SDS011;30159;49.316;8.558;2022-12-05T06:19:16;23.43;;;11.60;;
44456;SDS011;30159;49.316;8.558;2022-12-05T06:21:42;26.67;;;12.67;;
44456;SDS011;30159;49.316;8.558;2022-12-05T06:24:09;27.40;;;11.20;;
44456;SDS011;30159;49.316;8.558;2022-12-05T06:26:35;25.43;;;10.60;;
44456;SDS011;30159;49.316;8.558;2022-12-05T06:29:02;24.87;;;10.97;;
44456;SDS011;30159;49.316;8.558;2022-12-05T06:31:30;28.03;;;11.80;;
44456;SDS011;30159;49.316;8.558;2022-12-05T06:33:58;25.27;;;12.10;;
44456;SDS011;30159;49.316;8.558;2022-12-05T06:36:25;24.13;;;11.07;;
44456;SDS011;30159;49.316;8.558;2022-12-05T06:38:53;25.90;;;12.70;;
44456;SDS011;30159;49.316;8.558;2022-12-05T06:41:21;26.13;;;11.37;;
44456;SDS011;30159;49.316;8.558;2022-12-05T06:43:50;29.40;;;13.27;;
44456;SDS011;30159;49.316;8.558;2022-12-05T06:46:17;29.67;;;11.43;;
44456;SDS011;30159;49.316;8.558;2022-12-05T06:48:46;26.03;;;12.60;;
44456;SDS011;30159;49.316;8.558;2022-12-05T06:51:13;25.93;;;11.50;;
44456;SDS011;30159;49.316;8.558;2022-12-05T06:53:41;29.57;;;12.57;;
44456;SDS011;30159;49.316;8.558;2022-12-05T06:56:09;28.83;;;12.43;;
44456;SDS011;30159;49.316;8.558;2022-12-05T06:58:37;30.13;;;12.63;;
44456;SDS011;30159;49.316;8.558;2022-12-05T07:01:04;25.50;;;12.00;;
44456;SDS011;30159;49.316;8.558;2022-12-05T07:03:50;26.07;;;12.20;;
44456;SDS011;30159;49.316;8.558;2022-12-05T07:06:16;24.70;;;11.73;;
44456;SDS011;30159;49.316;8.558;2022-12-05T07:08:43;30.27;;;11.00;;
44456;SDS011;30159;49.316;8.558;2022-12-05T07:11:09;27.53;;;12.67;;
44456;SDS011;30159;49.316;8.558;2022-12-05T07:13:36;29.00;;;12.77;;
44456;SDS011;30159;49.316;8.558;2022-12-05T07:16:03;29.87;;;11.40;;
44456;SDS011;30159;49.316;8.558;2022-12-05T07:18:31;28.73;;;13.17;;
44456;SDS011;30159;49.316;8.558;2022-12-05T07:21:00;27.73;;;11.27;;
44456;SDS011;30159;49.316;8.558;2022-12-05T07:23:28;21.23;;;11.50;;
44456;SDS011;30159;49.316;8.558;2022-12-05T07:25:56;28.27;;;13.03;;
44456;SDS011;30159;49.316;8.558;2022-12-05T07:28:22;26.43;;;10.23;;
44456;SDS011;30159;49.316;8.558;2022-12-05T07:30:57;26.40;;;12.47;;
44456;SDS011;30159;49.316;8.558;2022-12-05T07:33:25;26.67;;;12.33;;
44456;SDS011;30159;49.316;8.558;2022-12-05T07:35:51;29.23;;;12.20;;
44456;SDS011;30159;49.316;8.558;2022-12-05T07:38:19;26.17;;;11.60;;
44456;SDS011;30159;49.316;8.558;2022-12-05T07:40:46;32.23;;;12.10;;
44456;SDS011;30159;49.316;8.558;2022-12-05T07:43:12;27.67;;;13.00;;
44456;SDS011;30159;49.316;8.558;2022-12-05T07:45:39;25.43;;;11.20;;
44456;SDS011;30159;49.316;8.558;2022-12-05T07:48:05;25.13;;;13.20;;
44456;SDS011;30159;49.316;8.558;2022-12-05T07:50:32;23.40;;;11.97;;
44456;SDS011;30159;49.316;8.558;2022-12-05T07:52:59;25.37;;;11.63;;
44456;SDS011;30159;49.316;8.558;2022-12-05T07:55:26;25.23;;;12.60;;
44456;SDS011;30159;49.316;8.558;2022-12-05T07:57:53;19.93;;;11.80;;
44456;SDS011;30159;49.316;8.558;2022-12-05T08:00:20;24.63;;;12.20;;
44456;SDS011;30159;49.316;8.558;2022-12-05T08:02:47;26.60;;;12.77;;
44456;SDS011;30159;49.316;8.558;2022-12-05T08:05:14;21.70;;;10.67;;
44456;SDS011;30159;49.316;8.558;2022-12-05T08:07:41;32.40;;;12.97;;
44456;SDS011;30159;49.316;8.558;2022-12-05T08:10:07;24.43;;;11.67;;
44456;SDS011;30159;49.316;8.558;2022-12-05T08:12:36;28.50;;;12.10;;
44456;SDS011;30159;49.316;8.558;2022-12-05T08:15:03;21.90;;;11.90;;
44456;SDS011;30159;49.316;8.558;2022-12-05T08:17:30;25.10;;;11.43;;
44456;SDS011;30159;49.316;8.558;2022-12-05T08:19:57;26.87;;;12.70;;
44456;SDS011;30159;49.316;8.558;2022-12-05T08:22:24;23.53;;;10.87;;
44456;SDS011;30159;49.316;8.558;2022-12-05T08:24:50;18.90;;;11.30;;
44456;SDS011;30159;49.316;8.558;2022-12-05T08:27:17;22.73;;;10.70;;
44456;SDS011;30159;49.316;8.558;2022-12-05T08:29:45;23.37;;;11.77;;
44456;SDS011;30159;49.316;8.558;2022-12-05T08:32:11;19.30;;;10.63;;
44456;SDS011;30159;49.316;8.558;2022-12-05T08:34:38;24.93;;;12.37;;
44456;SDS011;30159;49.316;8.558;2022-12-05T08:37:05;25.33;;;11.53;;
44456;SDS011;30159;49.316;8.558;2022-12-05T08:39:31;19.37;;;11.23;;
44456;SDS011;30159;49.316;8.558;2022-12-05T08:41:58;18.83;;;9.57;;
44456;SDS011;30159;49.316;8.558;2022-12-05T08:44:24;26.40;;;10.40;;
44456;SDS011;30159;49.316;8.558;2022-12-05T08:46:52;18.73;;;11.27;;
44456;SDS011;30159;49.316;8.558;2022-12-05T08:49:19;23.13;;;11.03;;
44456;SDS011;30159;49.316;8.558;2022-12-05T08:51:45;22.97;;;10.93;;
44456;SDS011;30159;49.316;8.558;2022-12-05T08:54:12;18.33;;;11.27;;
44456;SDS011;30159;49.316;8.558;2022-12-05T08:56:39;21.60;;;11.00;;
44456;SDS011;30159;49.316;8.558;2022-12-05T08:59:06;21.13;;;11.10;;
44456;SDS011;30159;49.316;8.558;2022-12-05T09:01:33;21.63;;;10.20;;
44456;SDS011;30159;49.316;8.558;2022-12-05T09:04:04;22.93;;;11.30;;
44456;SDS011;30159;49.316;8.558;2022-12-05T09:06:31;21.30;;;10.60;;
44456;SDS011;30159;49.316;8.558;2022-12-05T09:08:59;19.10;;;11.17;;
44456;SDS011;30159;49.316;8.558;2022-12-05T09:11:29;23.67;;;11.37;;
44456;SDS011;30159;49.316;8.558;2022-12-05T09:13:58;19.00;;;10.03;;
44456;SDS011;30159;49.316;8.558;2022-12-05T09:16:27;18.50;;;11.50;;
44456;SDS011;30159;49.316;8.558;2022-12-05T09:18:55;15.17;;;10.87;;
44456;SDS011;30159;49.316;8.558;2022-12-05T09:21:24;21.80;;;11.20;;
44456;SDS011;30159;49.316;8.558;2022-12-05T09:23:51;20.10;;;10.40;;
44456;SDS011;30159;49.316;8.558;2022-12-05T09:26:19;23.97;;;12.03;;
44456;SDS011;30159;49.316;8.558;2022-12-05T09:28:49;19.77;;;11.17;;
44456;SDS011;30159;49.316;8.558;2022-12-05T09:31:17;21.30;;;11.40;;
44456;SDS011;30159;49.316;8.558;2022-12-05T09:33:45;16.70;;;11.03;;
44456;SDS011;30159;49.316;8.558;2022-12-05T09:36:14;15.63;;;10.20;;
44456;SDS011;30159;49.316;8.558;2022-12-05T09:38:43;21.90;;;10.50;;
44456;SDS011;30159;49.316;8.558;2022-12-05T09:41:13;11.87;;;8.43;;
44456;SDS011;30159;49.316;8.558;2022-12-05T09:44:08;14.93;;;9.60;;
44456;SDS011;30159;49.316;8.558;2022-12-05T09:46:42;16.43;;;10.23;;
44456;SDS011;30159;49.316;8.558;2022-12-05T09:49:17;17.00;;;9.20;;
44456;SDS011;30159;49.316;8.558;2022-12-05T09:51:45;20.80;;;11.17;;
44456;SDS011;30159;49.316;8.558;2022-12-05T09:54:15;16.77;;;8.87;;
44456;SDS011;30159;49.316;8.558;2022-12-05T09:56:43;17.67;;;11.70;;
44456;SDS011;30159;49.316;8.558;2022-12-05T09:59:11;19.00;;;10.17;;
44456;SDS011;30159;49.316;8.558;2022-12-05T10:01:42;15.13;;;10.73;;
44456;SDS011;30159;49.316;8.558;2022-12-05T10:04:20;18.60;;;10.40;;
44456;SDS011;30159;49.316;8.558;2022-12-05T10:06:57;23.73;;;11.67;;
44456;SDS011;30159;49.316;8.558;2022-12-05T10:09:32;21.20;;;11.20;;
44456;SDS011;30159;49.316;8.558;2022-12-05T10:12:14;22.00;;;11.33;;
44456;SDS011;30159;49.316;8.558;2022-12-05T10:14:51;15.30;;;9.27;;
44456;SDS011;30159;49.316;8.558;2022-12-05T10:17:27;18.30;;;10.03;;
44456;SDS011;30159;49.316;8.558;2022-12-05T10:19:59;17.20;;;10.10;;
44456;SDS011;30159;49.316;8.558;2022-12-05T10:22:29;13.27;;;9.67;;
44456;SDS011;30159;49.316;8.558;2022-12-05T10:25:04;18.23;;;9.80;;
44456;SDS011;30159;49.316;8.558;2022-12-05T10:27:34;17.30;;;10.53;;
44456;SDS011;30159;49.316;8.558;2022-12-05T10:30:03;19.30;;;10.10;;
44456;SDS011;30159;49.316;8.558;2022-12-05T10:32:39;17.73;;;10.93;;
44456;SDS011;30159;49.316;8.558;2022-12-05T10:35:14;17.03;;;10.50;;
44456;SDS011;30159;49.316;8.558;2022-12-05T10:37:43;18.97;;;10.33;;
44456;SDS011;30159;49.316;8.558;2022-12-05T10:40:14;19.37;;;11.57;;
44456;SDS011;30159;49.316;8.558;2022-12-05T10:42:41;19.40;;;11.00;;
44456;SDS011;30159;49.316;8.558;2022-12-05T10:45:12;19.00;;;10.17;;
44456;SDS011;30159;49.316;8.558;2022-12-05T10:47:43;17.73;;;10.77;;
44456;SDS011;30159;49.316;8.558;2022-12-05T10:50:16;16.97;;;10.77;;
44456;SDS011;30159;49.316;8.558;2022-12-05T10:52:47;18.67;;;11.23;;
44456;SDS011;30159;49.316;8.558;2022-12-05T10:55:16;22.33;;;12.57;;
44456;SDS011;30159;49.316;8.558;2022-12-05T10:57:45;21.00;;;12.17;;
44456;SDS011;30159;49.316;8.558;2022-12-05T11:00:18;23.80;;;12.80;;
44456;SDS011;30159;49.316;8.558;2022-12-05T11:02:47;16.13;;;10.37;;
44456;SDS011;30159;49.316;8.558;2022-12-05T11:05:15;18.63;;;11.10;;
44456;SDS011;30159;49.316;8.558;2022-12-05T11:07:52;17.70;;;11.33;;
44456;SDS011;30159;49.316;8.558;2022-12-05T11:10:24;22.13;;;11.20;;
44456;SDS011;30159;49.316;8.558;2022-12-05T11:12:55;15.33;;;10.50;;
44456;SDS011;30159;49.316;8.558;2022-12-05T11:15:24;21.53;;;12.17;;
44456;SDS011;30159;49.316;8.558;2022-12-05T11:17:53;17.97;;;10.77;;
44456;SDS011;30159;49.316;8.558;2022-12-05T11:20:37;17.50;;;11.00;;
44456;SDS011;30159;49.316;8.558;2022-12-05T11:25:52;20.73;;;11.17;;
44456;SDS011;30159;49.316;8.558;2022-12-05T11:28:24;20.80;;;11.23;;
44456;SDS011;30159;49.316;8.558;2022-12-05T11:30:56;19.00;;;11.23;;
44456;SDS011;30159;49.316;8.558;2022-12-05T11:33:25;29.03;;;11.40;;
44456;SDS011;30159;49.316;8.558;2022-12-05T11:35:53;15.97;;;10.60;;
44456;SDS011;30159;49.316;8.558;2022-12-05T11:38:57;19.33;;;11.73;;
44456;SDS011;30159;49.316;8.558;2022-12-05T11:42:04;28.23;;;13.50;;
44456;SDS011;30159;49.316;8.558;2022-12-05T11:48:39;18.40;;;11.57;;
44456;SDS011;30159;49.316;8.558;2022-12-05T11:55:08;16.30;;;10.40;;
44456;SDS011;30159;49.316;8.558;2022-12-05T12:05:29;18.03;;;10.50;;
44456;SDS011;30159;49.316;8.558;2022-12-05T12:08:10;17.00;;;11.37;;
44456;SDS011;30159;49.316;8.558;2022-12-05T12:11:32;23.37;;;11.20;;
44456;SDS011;30159;49.316;8.558;2022-12-05T12:18:23;25.40;;;10.90;;
44456;SDS011;30159;49.316;8.558;2022-12-05T12:21:58;17.67;;;11.57;;
44456;SDS011;30159;49.316;8.558;2022-12-05T12:29:29;16.53;;;10.50;;
44456;SDS011;30159;49.316;8.558;2022-12-05T12:32:03;21.07;;;12.50;;
44456;SDS011;30159;49.316;8.558;2022-12-05T12:38:39;21.37;;;12.90;;
44456;SDS011;30159;49.316;8.558;2022-12-05T12:41:40;20.17;;;11.03;;
44456;SDS011;30159;49.316;8.558;2022-12-05T12:44:38;18.17;;;11.37;;
44456;SDS011;30159;49.316;8.558;2022-12-05T12:47:24;19.60;;;11.83;;
44456;SDS011;30159;49.316;8.558;2022-12-05T12:50:05;18.77;;;10.80;;
44456;SDS011;30159;49.316;8.558;2022-12-05T12:52:49;24.77;;;12.43;;
44456;SDS011;30159;49.316;8.558;2022-12-05T12:55:33;16.20;;;10.57;;
44456;SDS011;30159;49.316;8.558;2022-12-05T12:58:23;19.63;;;11.50;;
44456;SDS011;30159;49.316;8.558;2022-12-05T13:01:10;22.17;;;11.43;;
44456;SDS011;30159;49.316;8.558;2022-12-05T13:04:05;18.63;;;12.10;;
44456;SDS011;30159;49.316;8.558;2022-12-05T13:06:40;23.53;;;11.60;;
44456;SDS011;30159;49.316;8.558;2022-12-05T13:09:34;20.03;;;12.23;;
44456;SDS011;30159;49.316;8.558;2022-12-05T13:12:28;32.50;;;11.10;;
44456;SDS011;30159;49.316;8.558;2022-12-05T13:14:59;17.73;;;10.20;;
44456;SDS011;30159;49.316;8.558;2022-12-05T13:17:29;15.73;;;10.17;;
44456;SDS011;30159;49.316;8.558;2022-12-05T13:19:57;16.57;;;9.97;;
44456;SDS011;30159;49.316;8.558;2022-12-05T13:22:26;18.70;;;11.67;;
44456;SDS011;30159;49.316;8.558;2022-12-05T13:24:54;18.00;;;11.50;;
44456;SDS011;30159;49.316;8.558;2022-12-05T13:27:22;15.83;;;10.27;;
44456;SDS011;30159;49.316;8.558;2022-12-05T13:29:53;16.97;;;10.77;;
44456;SDS011;30159;49.316;8.558;2022-12-05T13:32:24;17.10;;;10.83;;
44456;SDS011;30159;49.316;8.558;2022-12-05T13:34:54;20.40;;;11.37;;
44456;SDS011;30159;49.316;8.558;2022-12-05T13:37:23;16.80;;;11.20;;
44456;SDS011;30159;49.316;8.558;2022-12-05T13:40:20;15.37;;;10.73;;
44456;SDS011;30159;49.316;8.558;2022-12-05T13:43:08;19.97;;;13.30;;
44456;SDS011;30159;49.316;8.558;2022-12-05T13:45:37;14.43;;;10.60;;
44456;SDS011;30159;49.316;8.558;2022-12-05T13:48:09;16.63;;;9.03;;
44456;SDS011;30159;49.316;8.558;2022-12-05T13:50:45;17.13;;;9.83;;
44456;SDS011;30159;49.316;8.558;2022-12-05T13:56:23;13.17;;;8.40;;
44456;SDS011;30159;49.316;8.558;2022-12-05T13:58:52;104.77;;;47.00;;
44456;SDS011;30159;49.316;8.558;2022-12-05T14:07:13;67.93;;;35.23;;
44456;SDS011;30159;49.316;8.558;2022-12-05T14:10:04;54.00;;;30.70;;
44456;SDS011;30159;49.316;8.558;2022-12-05T14:15:25;6.77;;;6.27;;
44456;SDS011;30159;49.316;8.558;2022-12-05T14:18:02;3.63;;;3.40;;
44456;SDS011;30159;49.316;8.558;2022-12-05T14:23:30;4.20;;;3.90;;
44456;SDS011;30159;49.316;8.558;2022-12-05T14:26:16;3.50;;;3.20;;
44456;SDS011;30159;49.316;8.558;2022-12-05T14:29:05;2.77;;;2.57;;
44456;SDS011;30159;49.316;8.558;2022-12-05T14:31:46;4.20;;;3.90;;
44456;SDS011;30159;49.316;8.558;2022-12-05T14:34:25;5.07;;;3.70;;
44456;SDS011;30159;49.316;8.558;2022-12-05T14:36:59;3.43;;;3.13;;
44456;SDS011;30159;49.316;8.558;2022-12-05T14:39:38;8.07;;;7.27;;
44456;SDS011;30159;49.316;8.558;2022-12-05T14:42:18;43.97;;;30.87;;
44456;SDS011;30159;49.316;8.558;2022-12-05T14:44:50;27.40;;;18.93;;
44456;SDS011;30159;49.316;8.558;2022-12-05T14:47:20;40.37;;;21.67;;
44456;SDS011;30159;49.316;8.558;2022-12-05T14:49:53;43.87;;;27.37;;
44456;SDS011;30159;49.316;8.558;2022-12-05T14:52:26;54.73;;;33.20;;
44456;SDS011;30159;49.316;8.558;2022-12-05T14:54:59;57.70;;;38.60;;
44456;SDS011;30159;49.316;8.558;2022-12-05T14:57:31;63.33;;;33.10;;
44456;SDS011;30159;49.316;8.558;2022-12-05T15:00:04;141.67;;;59.87;;
44456;SDS011;30159;49.316;8.558;2022-12-05T15:02:32;97.13;;;44.63;;
44456;SDS011;30159;49.316;8.558;2022-12-05T15:05:12;59.70;;;30.80;;
44456;SDS011;30159;49.316;8.558;2022-12-05T15:07:46;28.47;;;19.03;;
44456;SDS011;30159;49.316;8.558;2022-12-05T15:10:14;8.37;;;7.00;;
44456;SDS011;30159;49.316;8.558;2022-12-05T15:12:46;35.17;;;23.60;;
44456;SDS011;30159;49.316;8.558;2022-12-05T15:15:16;35.50;;;25.00;;
44456;SDS011;30159;49.316;8.558;2022-12-05T15:21:16;4.87;;;4.17;;
44456;SDS011;30159;49.316;8.558;2022-12-05T15:23:48;3.80;;;3.07;;
44456;SDS011;30159;49.316;8.558;2022-12-05T15:26:22;4.40;;;4.00;;
44456;SDS011;30159;49.316;8.558;2022-12-05T15:28:59;3.63;;;3.33;;
44456;SDS011;30159;49.316;8.558;2022-12-05T15:31:27;2.63;;;2.43;;
44456;SDS011;30159;49.316;8.558;2022-12-05T15:33:57;3.10;;;2.90;;
44456;SDS011;30159;49.316;8.558;2022-12-05T15:36:32;3.27;;;3.07;;
44456;SDS011;30159;49.316;8.558;2022-12-05T15:39:02;3.97;;;3.67;;
44456;SDS011;30159;49.316;8.558;2022-12-05T15:41:30;4.33;;;3.30;;